Map

Track Data

SID SEASON NUMBER BASIN SUBBASIN NAME ISO_TIME NATURE LAT LON WMO_WIND WMO_PRES WMO_AGENCY TRACK_TYPE DIST2LAND LANDFALL IFLAG USA_AGENCY USA_ATCF_ID USA_LAT USA_LON USA_RECORD USA_STATUS USA_WIND USA_PRES USA_SSHS USA_R34_NE USA_R34_SE USA_R34_SW USA_R34_NW USA_R50_NE USA_R50_SE USA_R50_SW USA_R50_NW USA_R64_NE USA_R64_SE USA_R64_SW USA_R64_NW USA_POCI USA_ROCI USA_RMW USA_EYE TOKYO_LAT TOKYO_LON TOKYO_GRADE TOKYO_WIND TOKYO_PRES TOKYO_R50_DIR TOKYO_R50_LONG TOKYO_R50_SHORT TOKYO_R30_DIR TOKYO_R30_LONG TOKYO_R30_SHORT TOKYO_LAND CMA_LAT CMA_LON CMA_CAT CMA_WIND CMA_PRES HKO_LAT HKO_LON HKO_CAT HKO_WIND HKO_PRES NEWDELHI_LAT NEWDELHI_LON NEWDELHI_GRADE NEWDELHI_WIND NEWDELHI_PRES NEWDELHI_CI NEWDELHI_DP NEWDELHI_POCI REUNION_LAT REUNION_LON REUNION_TYPE REUNION_WIND REUNION_PRES REUNION_TNUM REUNION_CI REUNION_RMW REUNION_R34_NE REUNION_R34_SE REUNION_R34_SW REUNION_R34_NW REUNION_R50_NE REUNION_R50_SE REUNION_R50_SW REUNION_R50_NW REUNION_R64_NE REUNION_R64_SE REUNION_R64_SW REUNION_R64_NW BOM_LAT BOM_LON BOM_TYPE BOM_WIND BOM_PRES BOM_TNUM BOM_CI BOM_RMW BOM_R34_NE BOM_R34_SE BOM_R34_SW BOM_R34_NW BOM_R50_NE BOM_R50_SE BOM_R50_SW BOM_R50_NW BOM_R64_NE BOM_R64_SE BOM_R64_SW BOM_R64_NW BOM_ROCI BOM_POCI BOM_EYE BOM_POS_METHOD BOM_PRES_METHOD NADI_LAT NADI_LON NADI_CAT NADI_WIND NADI_PRES WELLINGTON_LAT WELLINGTON_LON WELLINGTON_WIND WELLINGTON_PRES DS824_LAT DS824_LON DS824_STAGE DS824_WIND DS824_PRES TD9636_LAT TD9636_LON TD9636_STAGE TD9636_WIND TD9636_PRES TD9635_LAT TD9635_LON TD9635_WIND TD9635_PRES TD9635_ROCI NEUMANN_LAT NEUMANN_LON NEUMANN_CLASS NEUMANN_WIND NEUMANN_PRES MLC_LAT MLC_LON MLC_CLASS MLC_WIND MLC_PRES USA_GUST BOM_GUST BOM_GUST_PER REUNION_GUST REUNION_GUST_PER USA_SEAHGT USA_SEARAD_NE USA_SEARAD_SE USA_SEARAD_SW USA_SEARAD_NW STORM_SPEED STORM_DIR
1894172N20087 1894 22 NI BB NOT_NAMED 1894-06-21 00:00:00 TS 20.3000 87.2000 main 45 30 _________O____ -1 20.3000 87.2000 TC 34 3 322
1894172N20087 1894 22 NI BB NOT_NAMED 1894-06-21 03:00:00 TS 20.4250 87.0934 main 30 10 _________PO___ -1 20.4875 87.0401 TC 36 20.3000 87.2000 2 4 327
1894172N20087 1894 22 NI BB NOT_NAMED 1894-06-21 06:00:00 TS 20.6319 86.9652 main 10 0 _________OP___ -1 20.7000 86.9000 TC 39 20.5298 87.0629 2 5 333
1894172N20087 1894 22 NI BB NOT_NAMED 1894-06-21 09:00:00 TS 20.8676 86.8516 main 0 0 _________PP___ -1 20.9500 86.7925 TC 42 20.7577 86.9305 2 5 336
1894172N20087 1894 22 NI BB NOT_NAMED 1894-06-21 12:00:00 TS 21.0908 86.7539 main 0 0 _________OP___ -1 21.2000 86.7000 TC 45 20.9817 86.8078 2 5 336
1894172N20087 1894 22 NI BB NOT_NAMED 1894-06-21 15:00:00 TS 21.3037 86.6500 main 0 0 _________PO___ -1 21.4075 86.6000 TC 41 21.2000 86.7000 3 5 336
1894172N20087 1894 22 NI BB NOT_NAMED 1894-06-21 18:00:00 TS 21.5056 86.5544 main 0 0 _________OP___ -1 21.6000 86.5000 TC 37 21.4111 86.6088 3 4 337
1894172N20087 1894 22 NI BB NOT_NAMED 1894-06-21 21:00:00 TS 21.7074 86.4685 main 0 0 _________PP___ -1 21.8000 86.4149 TC 33 21.6148 86.5221 3 4 336
1894172N20087 1894 22 NI BB NOT_NAMED 1894-06-22 00:00:00 TS 21.9055 86.3622 main 0 0 _________OP___ -1 22.0000 86.3000 TC 30 21.8111 86.4244 3 5 329
1894172N20087 1894 22 NI BB NOT_NAMED 1894-06-22 03:00:00 TS 22.1038 86.2075 main 0 0 _________PO___ -1 22.2075 86.1150 TC 30 22.0000 86.3000 1 5 320
1894172N20087 1894 22 NI BB NOT_NAMED 1894-06-22 06:00:00 TS 22.2932 86.0144 main 0 0 _________OP___ -1 22.4000 85.9000 TC 30 22.1863 86.1288 1 5 315
1894172N20087 1894 22 NI BB NOT_NAMED 1894-06-22 09:00:00 TS 22.4613 85.8150 main 0 0 _________PP___ -1 22.5575 85.6999 TC 30 22.3651 85.9300 1 5 311
1894172N20087 1894 22 NI BB NOT_NAMED 1894-06-22 12:00:00 TS 22.6181 85.6081 main 0 0 _________OP___ -1 22.7000 85.5000 TC 30 22.5363 85.7163 1 5 309
1894172N20087 1894 22 NI BB NOT_NAMED 1894-06-22 15:00:00 TS 22.7750 85.4000 main 0 0 _________PO___ -1 22.8500 85.3000 TC 30 22.7000 85.5000 1 5 310
1894172N20087 1894 22 NI BB NOT_NAMED 1894-06-22 18:00:00 TS 22.9161 85.2238 main 0 0 _________OP___ -1 23.0000 85.1000 TC 30 22.8321 85.3477 1 4 311
1894172N20087 1894 22 NI BB NOT_NAMED 1894-06-22 21:00:00 TS 23.0443 85.0664 main 0 0 _________PP___ -1 23.1272 84.9446 TC 30 22.9614 85.1882 1 5 309
1894172N20087 1894 22 NI BB NOT_NAMED 1894-06-23 00:00:00 TS 23.2050 84.8424 main 0 0 _________OP___ -1 23.3000 84.7000 TC 30 23.1100 84.9848 1 7 306
1894172N20087 1894 22 NI BB NOT_NAMED 1894-06-23 03:00:00 TS 23.4388 84.4726 main 0 0 _________PO___ -1 23.5777 84.2452 TC 30 23.3000 84.7000 1 9 302
1894172N20087 1894 22 NI BB NOT_NAMED 1894-06-23 06:00:00 TS 23.7048 83.9690 main 0 0 _________OP___ -1 23.9000 83.7000 TC 30 23.5096 84.2380 1 11 299
1894172N20087 1894 22 NI BB NOT_NAMED 1894-06-23 09:00:00 TS 23.9649 83.4352 main 0 0 _________PP___ -1 24.1626 83.1697 TC 30 23.7672 83.7008 1 11 302
1894172N20087 1894 22 NI BB NOT_NAMED 1894-06-23 12:00:00 TS 24.2955 82.9315 main 0 0 _________OP___ -1 24.5000 82.7000 TC 30 24.0909 83.1631 1 11 313
1894172N20087 1894 22 NI BB NOT_NAMED 1894-06-23 15:00:00 TS 24.7487 82.5201 main 0 0 _________PO___ -1 24.9974 82.3401 TC 30 24.5000 82.7000 1 11 327
1894172N20087 1894 22 NI BB NOT_NAMED 1894-06-23 18:00:00 TS 25.2611 82.2534 main 0 0 _________OP___ -1 25.6000 82.1000 TC 30 25.0069 82.3684 1 12 340
1894172N20087 1894 22 NI BB NOT_NAMED 1894-06-23 21:00:00 TS 25.8531 82.0778 main 0 0 _________PP___ -1 26.2425 81.9699 TC 30 25.5934 82.1497 1 12 348
1894172N20087 1894 22 NI BB NOT_NAMED 1894-06-24 00:00:00 TS 26.4556 81.9708 main 0 0 _________OP___ -1 26.9000 81.9000 TC 30 26.2334 82.0062 1 11 351
1894172N20087 1894 22 NI BB NOT_NAMED 1894-06-24 03:00:00 NR 26.9000 81.9000 main 0 __________O___ -1 TC 26.9000 81.9000 1 9 351

About IBTrACS Database

This database is a web-friendly format of International Best Track Archive for Climate Stewardship (IBTrACS), a global best track data archive curated by NOAA dating back to 1842.

Updated: 2021-10-08